Time;durP1;ratioP1;P1;durP2;ratioP2;P2;SDS_P1;SDS_P2;PMS_P1;PMS_P2;Temp;Humidity;BMP_temperature;BMP_pressure;BME280_temperature;BME280_humidity;BME280_pressure;Samples;Min_cycle;Max_cycle;Signal;HPM_P1;HPM_P2
2021/11/08 00:01:58;;;;;;;35.53;7.88;;;8.00;95.10;;;;;;5033985;28;20037;-76
2021/11/08 00:04:24;;;;;;;24.65;7.30;;;8.00;95.10;;;;;;5053397;28;20029;-74
2021/11/08 00:06:51;;;;;;;28.60;6.38;;;8.00;95.10;;;;;;5052195;28;20025;-74
2021/11/08 00:09:17;;;;;;;35.25;6.88;;;8.00;95.10;;;;;;5036720;28;20033;-74
2021/11/08 00:11:43;;;;;;;30.50;6.75;;;7.90;95.10;;;;;;5052064;28;20045;-74
2021/11/08 00:14:12;;;;;;;32.60;7.72;;;7.90;95.40;;;;;;5041213;28;20091;-75
2021/11/08 00:19:43;;;;;;;23.25;6.55;;;7.90;95.20;;;;;;5054179;28;20036;-74
2021/11/08 00:22:09;;;;;;;32.03;8.18;;;7.80;95.20;;;;;;5037642;28;20505;-74
2021/11/08 00:24:38;;;;;;;21.73;5.53;;;7.90;95.30;;;;;;5052499;28;20096;-74
2021/11/08 00:27:04;;;;;;;38.78;7.68;;;7.90;95.30;;;;;;5053521;28;20037;-79
2021/11/08 00:29:30;;;;;;;27.20;6.53;;;7.90;95.30;;;;;;5037036;28;20099;-79
2021/11/08 00:31:56;;;;;;;28.50;7.38;;;7.90;95.30;;;;;;5053711;28;20108;-79
2021/11/08 00:34:22;;;;;;;24.92;6.00;;;8.00;95.30;;;;;;5051356;28;20025;-74
2021/11/08 00:36:50;;;;;;;35.22;6.63;;;8.00;95.30;;;;;;5035315;28;20035;-74
2021/11/08 00:39:17;;;;;;;24.92;7.13;;;8.00;95.30;;;;;;5052695;28;20124;-75
2021/11/08 00:41:43;;;;;;;31.10;6.55;;;8.00;95.30;;;;;;5034349;28;20040;-74
2021/11/08 00:44:09;;;;;;;27.90;6.28;;;8.00;95.30;;;;;;5030081;28;20037;-75
2021/11/08 00:46:35;;;;;;;24.35;6.78;;;7.90;95.30;;;;;;5017218;28;20081;-75
2021/11/08 00:49:00;;;;;;;32.13;6.38;;;7.90;95.30;;;;;;5050373;28;20033;-75
2021/11/08 00:51:26;;;;;;;37.53;7.22;;;7.90;95.60;;;;;;5049552;28;20028;-75
2021/11/08 00:53:52;;;;;;;32.08;7.13;;;7.90;95.30;;;;;;5049493;28;20036;-75
2021/11/08 00:56:20;;;;;;;21.42;6.45;;;7.90;95.30;;;;;;5013192;28;20041;-75
2021/11/08 00:58:46;;;;;;;36.53;7.00;;;7.90;95.30;;;;;;5046952;28;20393;-75
2021/11/08 01:01:19;;;;;;;22.25;5.28;;;7.90;95.30;;;;;;5030732;28;20026;-75
2021/11/08 01:03:46;;;;;;;36.05;6.35;;;7.90;95.40;;;;;;5046955;28;20094;-79
2021/11/08 01:06:13;;;;;;;25.00;5.93;;;7.90;95.40;;;;;;5053253;28;20052;-79
2021/11/08 01:08:40;;;;;;;38.03;6.60;;;7.90;95.30;;;;;;5054230;28;20029;-79
2021/11/08 01:11:07;;;;;;;26.83;6.45;;;7.90;95.30;;;;;;5054234;28;20017;-79
2021/11/08 01:13:33;;;;;;;34.35;6.57;;;7.90;95.30;;;;;;5052655;28;20454;-79
2021/11/08 01:16:00;;;;;;;29.85;5.70;;;7.90;95.30;;;;;;5054055;28;20092;-79
2021/11/08 01:18:26;;;;;;;32.53;6.60;;;7.90;95.30;;;;;;5052805;28;20025;-79
2021/11/08 01:20:52;;;;;;;24.20;5.18;;;7.90;95.30;;;;;;5054028;28;20389;-79
2021/11/08 01:23:22;;;;;;;25.42;5.88;;;7.80;95.40;;;;;;5052812;28;20029;-79
2021/11/08 01:25:57;;;;;;;30.17;6.40;;;7.80;95.40;;;;;;5054160;28;20029;-80
2021/11/08 01:28:30;;;;;;;27.67;6.57;;;7.80;95.30;;;;;;5052768;28;20032;-80
2021/11/08 01:30:56;;;;;;;30.95;6.07;;;7.80;95.30;;;;;;5053523;28;20052;-78
2021/11/08 01:33:23;;;;;;;28.85;6.20;;;7.80;95.60;;;;;;5052469;28;20485;-78
2021/11/08 01:38:43;;;;;;;35.05;6.40;;;7.70;95.30;;;;;;5053536;28;20029;-78
2021/11/08 01:41:11;;;;;;;26.92;5.80;;;7.70;95.40;;;;;;5053361;28;20449;-78
2021/11/08 01:43:38;;;;;;;30.33;6.38;;;7.70;95.40;;;;;;5051879;28;20432;-77
2021/11/08 01:46:04;;;;;;;31.05;7.18;;;7.70;95.40;;;;;;5053746;28;20033;-78
2021/11/08 01:48:30;;;;;;;26.20;6.75;;;7.70;95.40;;;;;;5053750;28;20025;-77
2021/11/08 01:50:56;;;;;;;26.02;6.10;;;7.80;95.40;;;;;;5052195;28;20488;-78
2021/11/08 01:53:23;;;;;;;29.90;6.90;;;7.80;95.50;;;;;;5053583;28;20025;-78
2021/11/08 01:55:50;;;;;;;35.58;7.03;;;7.80;95.40;;;;;;5052392;28;20025;-78
2021/11/08 01:58:21;;;;;;;49.97;7.70;;;7.80;95.50;;;;;;5053524;28;20036;-78
2021/11/08 02:00:48;;;;;;;32.03;6.72;;;7.90;95.50;;;;;;5053346;28;20104;-78
2021/11/08 02:03:16;;;;;;;33.63;7.43;;;7.90;95.50;;;;;;5053275;28;20070;-78
2021/11/08 02:05:42;;;;;;;43.90;7.63;;;7.90;95.50;;;;;;5051722;28;20025;-78
2021/11/08 02:08:09;;;;;;;34.60;6.72;;;8.00;95.50;;;;;;5052121;28;20029;-78
2021/11/08 02:10:35;;;;;;;25.80;6.45;;;7.90;95.50;;;;;;5053018;28;20025;-78
2021/11/08 02:13:02;;;;;;;29.65;7.30;;;8.00;95.60;;;;;;5054930;28;20040;-78
2021/11/08 02:15:28;;;;;;;30.52;7.30;;;8.00;95.60;;;;;;5072847;28;20026;-78
2021/11/08 02:17:54;;;;;;;27.42;7.13;;;8.00;95.60;;;;;;5054750;28;20055;-78
2021/11/08 02:20:25;;;;;;;29.50;7.68;;;8.00;95.60;;;;;;5052417;28;20059;-78
2021/11/08 02:22:52;;;;;;;47.58;8.13;;;8.00;95.60;;;;;;5052081;28;20036;-77
2021/11/08 02:25:19;;;;;;;31.63;8.00;;;8.00;95.60;;;;;;5052594;28;20417;-78
2021/11/08 02:27:45;;;;;;;29.08;6.40;;;8.00;95.60;;;;;;5051419;28;20021;-78
2021/11/08 02:30:12;;;;;;;32.40;7.82;;;7.90;95.60;;;;;;5050730;28;20049;-78
2021/11/08 02:32:39;;;;;;;27.63;6.50;;;7.90;95.60;;;;;;5052670;28;20067;-78
2021/11/08 02:35:07;;;;;;;36.47;7.38;;;7.90;95.60;;;;;;5051606;28;20025;-78
2021/11/08 02:37:33;;;;;;;25.02;6.65;;;7.80;95.60;;;;;;5035413;28;20167;-78
2021/11/08 02:40:00;;;;;;;43.40;7.60;;;7.80;95.60;;;;;;5052849;28;20489;-78
2021/11/08 02:42:27;;;;;;;24.20;6.82;;;7.70;95.50;;;;;;5035367;28;20037;-78
2021/11/08 02:44:53;;;;;;;30.95;6.90;;;7.70;95.50;;;;;;5051581;28;20040;-78
2021/11/08 02:47:18;;;;;;;28.58;6.63;;;7.70;95.50;;;;;;5051737;28;20039;-78
2021/11/08 02:49:46;;;;;;;24.67;6.10;;;7.60;95.50;;;;;;5052579;28;20033;-77
2021/11/08 02:52:16;;;;;;;35.88;7.78;;;7.60;95.50;;;;;;5051611;28;20029;-78
2021/11/08 02:54:46;;;;;;;27.77;6.80;;;7.60;95.50;;;;;;5053553;28;20021;-78
2021/11/08 02:57:12;;;;;;;23.45;6.60;;;7.60;95.50;;;;;;5055173;28;20049;-78
2021/11/08 02:59:38;;;;;;;27.92;6.68;;;7.60;95.50;;;;;;5056581;28;20786;-78
2021/11/08 03:02:06;;;;;;;34.15;7.20;;;7.60;95.50;;;;;;5056643;28;20044;-78
2021/11/08 03:04:40;;;;;;;27.08;6.78;;;7.60;95.50;;;;;;5055289;28;20079;-78
2021/11/08 03:07:06;;;;;;;35.90;7.30;;;7.60;95.50;;;;;;5056527;28;20017;-78
2021/11/08 03:09:39;;;;;;;29.27;7.05;;;7.60;95.50;;;;;;5056206;28;20096;-78
2021/11/08 03:12:14;;;;;;;37.80;7.47;;;7.70;95.60;;;;;;5055150;28;20060;-78
2021/11/08 03:14:45;;;;;;;29.45;6.82;;;7.70;95.60;;;;;;5056560;28;20021;-78
2021/11/08 03:17:13;;;;;;;27.70;7.32;;;7.70;95.60;;;;;;5039267;28;20082;-81
2021/11/08 03:19:40;;;;;;;28.13;6.65;;;7.70;95.60;;;;;;5038940;28;20029;-80
2021/11/08 03:22:11;;;;;;;29.35;6.78;;;7.70;95.60;;;;;;5054947;28;20511;-80
2021/11/08 03:29:48;;;;;;;29.45;6.68;;;7.80;95.70;;;;;;5056044;28;20057;-80
2021/11/08 03:32:16;;;;;;;24.90;6.47;;;7.80;95.60;;;;;;5055055;28;20032;-80
2021/11/08 03:34:56;;;;;;;35.85;7.50;;;7.80;95.60;;;;;;5054673;28;20056;-80
2021/11/08 03:37:23;;;;;;;31.50;7.32;;;7.80;95.60;;;;;;5054780;28;20079;-80
2021/11/08 03:39:52;;;;;;;40.08;7.85;;;7.90;95.70;;;;;;5054740;28;20021;-80
2021/11/08 03:42:19;;;;;;;24.77;7.20;;;7.80;95.60;;;;;;5055732;28;20044;-80
2021/11/08 03:44:46;;;;;;;32.15;7.45;;;7.70;95.60;;;;;;5054229;28;20036;-79
2021/11/08 03:47:12;;;;;;;36.78;8.25;;;7.70;95.60;;;;;;5054230;28;20033;-80
2021/11/08 03:49:38;;;;;;;28.55;6.88;;;7.80;95.60;;;;;;5053563;28;20103;-80
2021/11/08 03:52:05;;;;;;;38.55;7.45;;;7.70;95.60;;;;;;5052807;28;20766;-79
2021/11/08 03:54:30;;;;;;;33.03;6.88;;;7.70;95.60;;;;;;5053349;28;20037;-79
2021/11/08 03:56:57;;;;;;;31.77;6.95;;;7.70;95.60;;;;;;5033377;28;20029;-80
2021/11/08 03:59:22;;;;;;;27.10;6.82;;;7.60;95.60;;;;;;5047132;28;20029;-80
2021/11/08 04:01:49;;;;;;;30.48;6.97;;;7.60;95.70;;;;;;5053712;28;20036;-80
2021/11/08 04:04:15;;;;;;;29.08;8.18;;;7.60;95.60;;;;;;5053955;28;20031;-80
2021/11/08 04:06:41;;;;;;;33.72;7.22;;;7.50;95.60;;;;;;5051728;28;20120;-80
2021/11/08 04:09:09;;;;;;;28.00;6.95;;;7.60;95.70;;;;;;5053168;28;20036;-80
2021/11/08 04:11:35;;;;;;;26.55;6.68;;;7.50;95.60;;;;;;5051567;28;20032;-81
2021/11/08 04:14:03;;;;;;;24.50;6.60;;;7.60;95.60;;;;;;5050937;28;20041;-80
2021/11/08 04:16:30;;;;;;;26.52;6.93;;;7.50;95.60;;;;;;5051816;28;20044;-80
2021/11/08 04:18:57;;;;;;;25.63;6.68;;;7.50;95.90;;;;;;5054281;28;20021;-81
2021/11/08 04:21:25;;;;;;;29.02;7.05;;;7.50;95.60;;;;;;5054586;28;20053;-80
2021/11/08 04:23:51;;;;;;;27.02;6.68;;;7.50;95.60;;;;;;5054814;28;20025;-80
2021/11/08 04:26:19;;;;;;;31.27;7.18;;;7.50;95.60;;;;;;5033776;28;20033;-80
2021/11/08 04:28:52;;;;;;;40.25;7.20;;;7.50;95.70;;;;;;5045521;28;20362;-80
2021/11/08 04:31:18;;;;;;;28.85;7.00;;;7.50;95.70;;;;;;5053760;28;20045;-80
2021/11/08 04:33:48;;;;;;;30.13;6.72;;;7.50;95.70;;;;;;5033655;28;20040;-80
2021/11/08 04:42:08;;;;;;;38.20;8.20;;;7.60;95.70;;;;;;5021570;28;20026;-80
2021/11/08 04:55:23;;;;;;;35.80;8.13;;;7.70;95.80;;;;;;5054556;28;20033;-79
2021/11/08 04:58:23;;;;;;;33.75;7.07;;;7.80;95.80;;;;;;5052992;28;20029;-80
2021/11/08 05:25:14;;;;;;;26.33;7.20;;;7.90;95.90;;;;;;5053048;28;20025;-79
2021/11/08 05:28:04;;;;;;;36.03;7.25;;;7.90;95.90;;;;;;5038365;28;20037;-79
2021/11/08 05:30:30;;;;;;;32.72;7.63;;;7.90;95.90;;;;;;5039038;28;20045;-79
2021/11/08 05:32:56;;;;;;;26.98;7.45;;;7.90;95.90;;;;;;5031876;28;20115;-79
2021/11/08 05:35:22;;;;;;;33.53;8.00;;;7.90;96.20;;;;;;5041797;28;20052;-79
2021/11/08 05:37:48;;;;;;;39.83;9.43;;;7.90;95.90;;;;;;5053553;28;20469;-79
2021/11/08 05:40:25;;;;;;;31.33;8.23;;;8.00;95.90;;;;;;5052163;28;20107;-79
2021/11/08 05:42:50;;;;;;;28.23;8.73;;;7.90;95.90;;;;;;5051984;28;20025;-79
2021/11/08 05:45:17;;;;;;;34.58;9.25;;;8.00;95.90;;;;;;5052324;28;20047;-79
2021/11/08 05:47:44;;;;;;;33.67;8.80;;;7.90;96.20;;;;;;5053068;28;20059;-79
2021/11/08 05:50:12;;;;;;;32.60;8.25;;;8.00;96.00;;;;;;5052097;28;20029;-79
2021/11/08 05:52:38;;;;;;;32.13;8.23;;;8.00;96.00;;;;;;5053328;28;20566;-79
2021/11/08 05:55:05;;;;;;;35.63;8.73;;;8.00;96.00;;;;;;5053336;28;20021;-79
2021/11/08 06:51:43;;;;;;;44.47;9.55;;;8.00;96.10;;;;;;5052325;28;20029;-78
2021/11/08 06:54:09;;;;;;;38.65;8.85;;;8.00;96.40;;;;;;5034416;28;20066;-78
2021/11/08 06:56:45;;;;;;;33.80;9.35;;;8.00;96.10;;;;;;5050925;28;20473;-78
2021/11/08 06:59:11;;;;;;;35.83;9.05;;;8.00;96.10;;;;;;5048523;28;20032;-78
2021/11/08 07:01:37;;;;;;;46.35;9.65;;;8.00;96.10;;;;;;5051152;28;20052;-78
2021/11/08 07:04:03;;;;;;;40.60;9.50;;;8.10;96.10;;;;;;5052123;28;20032;-78
2021/11/08 07:06:28;;;;;;;32.05;7.97;;;8.00;96.10;;;;;;5052220;28;20037;-78
2021/11/08 07:08:54;;;;;;;35.40;8.48;;;8.00;96.10;;;;;;5034677;28;20021;-78
2021/11/08 07:11:20;;;;;;;35.63;8.25;;;8.10;96.10;;;;;;5051215;28;20044;-78
2021/11/08 07:13:46;;;;;;;37.50;8.60;;;8.10;96.10;;;;;;5051110;28;20032;-78
2021/11/08 07:16:12;;;;;;;28.90;8.13;;;8.10;96.10;;;;;;5034253;28;20036;-78
2021/11/08 07:18:38;;;;;;;40.28;8.90;;;8.10;96.10;;;;;;5051521;28;20090;-78
2021/11/08 07:21:04;;;;;;;37.35;7.80;;;8.10;96.10;;;;;;5051557;28;20032;-78
2021/11/08 07:23:29;;;;;;;31.88;8.00;;;8.10;96.40;;;;;;5034592;28;20036;-78
2021/11/08 07:25:55;;;;;;;33.85;8.25;;;8.20;96.10;;;;;;5034184;28;20067;-78
2021/11/08 07:28:21;;;;;;;32.67;8.10;;;8.20;96.10;;;;;;5050803;28;20029;-78
2021/11/08 07:30:47;;;;;;;45.65;8.70;;;8.20;96.10;;;;;;5050835;28;20139;-78
2021/11/08 07:33:16;;;;;;;36.90;8.70;;;8.20;96.10;;;;;;5052209;28;20098;-78
2021/11/08 07:35:45;;;;;;;38.47;8.43;;;8.20;96.00;;;;;;5050913;28;20041;-78
2021/11/08 07:38:11;;;;;;;34.55;7.82;;;8.20;96.00;;;;;;5031329;28;20144;-79
2021/11/08 07:40:37;;;;;;;43.45;9.45;;;8.20;96.00;;;;;;5047104;28;20298;-79
2021/11/08 07:43:03;;;;;;;43.05;7.93;;;8.20;96.00;;;;;;5053338;28;20036;-78
2021/11/08 07:45:29;;;;;;;38.90;9.02;;;8.20;96.00;;;;;;5036594;28;20398;-78
2021/11/08 07:47:55;;;;;;;31.25;7.93;;;8.30;96.00;;;;;;5054885;28;20025;-78
2021/11/08 07:50:21;;;;;;;36.65;8.23;;;8.30;96.00;;;;;;5055654;28;20033;-78
2021/11/08 07:52:47;;;;;;;47.97;8.52;;;8.30;95.90;;;;;;5055703;28;20033;-78
2021/11/08 07:55:13;;;;;;;42.13;7.63;;;8.30;95.90;;;;;;5055683;28;20063;-78
2021/11/08 07:57:39;;;;;;;35.00;7.78;;;8.30;95.90;;;;;;5038018;28;20067;-78
2021/11/08 08:00:08;;;;;;;37.65;7.22;;;8.30;95.80;;;;;;5053040;28;20012;-78
2021/11/08 08:02:34;;;;;;;39.25;8.15;;;8.30;95.80;;;;;;5052086;28;20397;-78
2021/11/08 08:05:00;;;;;;;40.63;7.95;;;8.40;95.80;;;;;;5053366;28;20466;-78
2021/11/08 08:07:26;;;;;;;31.08;7.85;;;8.40;95.80;;;;;;5055456;28;20039;-78
2021/11/08 08:09:53;;;;;;;49.40;9.50;;;8.40;95.80;;;;;;5053490;28;20100;-78
2021/11/08 08:12:19;;;;;;;43.95;7.78;;;8.40;95.80;;;;;;5037554;28;20040;-78
2021/11/08 08:14:45;;;;;;;32.67;7.25;;;8.40;95.80;;;;;;5054127;28;20029;-78
2021/11/08 08:17:11;;;;;;;40.65;8.07;;;8.40;95.80;;;;;;5051936;28;20072;-78
2021/11/08 08:19:37;;;;;;;40.35;8.43;;;8.40;95.80;;;;;;5054769;28;20025;-79
2021/11/08 08:22:03;;;;;;;33.63;7.88;;;8.50;95.80;;;;;;5054245;28;20120;-79
2021/11/08 08:24:29;;;;;;;40.20;7.32;;;8.50;95.70;;;;;;5053352;28;20124;-80
2021/11/08 08:26:55;;;;;;;30.88;7.78;;;8.50;95.70;;;;;;5054874;28;20051;-80
2021/11/08 08:29:21;;;;;;;44.25;7.43;;;8.60;95.70;;;;;;5053734;28;20052;-79
2021/11/08 08:31:50;;;;;;;37.22;7.68;;;8.60;95.70;;;;;;5053618;28;20057;-79
2021/11/08 08:34:17;;;;;;;39.70;7.55;;;8.70;95.60;;;;;;5053158;28;20124;-79
2021/11/08 08:36:42;;;;;;;34.63;8.00;;;8.70;95.60;;;;;;5053592;28;20037;-79
2021/11/08 08:39:09;;;;;;;31.25;7.70;;;8.70;95.90;;;;;;5054680;28;20470;-78
2021/11/08 08:41:36;;;;;;;37.45;7.72;;;8.70;95.60;;;;;;5037365;28;20025;-79
2021/11/08 08:44:03;;;;;;;35.58;6.82;;;8.80;95.60;;;;;;5037503;28;20028;-79
2021/11/08 08:46:28;;;;;;;33.65;7.13;;;8.80;95.80;;;;;;5054988;28;20167;-79
2021/11/08 08:48:54;;;;;;;36.42;7.70;;;8.90;95.50;;;;;;5053410;28;20112;-78
2021/11/08 08:51:21;;;;;;;37.10;6.95;;;8.90;95.50;;;;;;5053047;28;20039;-80
2021/11/08 08:53:47;;;;;;;32.40;6.93;;;9.00;95.50;;;;;;5054003;28;20368;-78
2021/11/08 08:56:14;;;;;;;36.50;7.88;;;9.00;95.40;;;;;;5054688;28;20033;-78
2021/11/08 08:58:40;;;;;;;36.47;8.00;;;9.00;95.40;;;;;;5033497;28;20432;-78
2021/11/08 09:01:06;;;;;;;35.40;7.95;;;9.10;95.40;;;;;;5033475;28;20018;-78
2021/11/08 09:03:31;;;;;;;34.47;7.97;;;9.10;95.30;;;;;;5039398;28;20029;-78
2021/11/08 09:05:59;;;;;;;32.63;8.15;;;9.20;95.30;;;;;;5053941;28;20037;-78
2021/11/08 09:08:25;;;;;;;38.53;8.38;;;9.20;95.30;;;;;;5053711;28;20096;-79
2021/11/08 09:10:51;;;;;;;38.42;8.15;;;9.20;95.20;;;;;;5052391;28;20162;-78
2021/11/08 09:13:17;;;;;;;39.63;8.52;;;9.30;95.10;;;;;;5035697;28;20037;-78
2021/11/08 09:15:42;;;;;;;38.63;7.82;;;9.40;95.10;;;;;;5051246;28;20028;-78
2021/11/08 09:18:10;;;;;;;39.08;8.15;;;9.40;95.10;;;;;;5051617;28;20029;-78
2021/11/08 09:20:38;;;;;;;32.40;7.45;;;9.50;95.10;;;;;;5050091;28;20029;-78
2021/11/08 09:23:05;;;;;;;32.47;7.30;;;9.60;94.70;;;;;;5052572;28;20104;-78
2021/11/08 09:25:32;;;;;;;43.55;7.97;;;9.70;94.90;;;;;;5036251;28;20040;-80
2021/11/08 09:28:01;;;;;;;36.63;8.10;;;9.70;94.50;;;;;;5053860;28;20036;-81
2021/11/08 09:30:31;;;;;;;31.27;7.95;;;9.80;94.40;;;;;;5052438;28;20061;-82
2021/11/08 09:32:56;;;;;;;;;;;9.80;94.30;;;;;;5053019;28;20036;-80
2021/11/08 09:35:23;;;;;;;27.60;7.75;;;9.90;94.30;;;;;;5044677;28;19913;-80
2021/11/08 09:37:50;;;;;;;34.83;7.57;;;9.90;94.20;;;;;;5052294;28;20059;-80
2021/11/08 09:40:21;;;;;;;35.00;6.88;;;10.00;94.40;;;;;;5052575;28;20029;-80
2021/11/08 09:42:48;;;;;;;28.90;7.22;;;10.10;93.90;;;;;;5053827;28;20476;-80
2021/11/08 09:45:14;;;;;;;38.53;7.88;;;10.20;93.90;;;;;;5052476;28;20478;-80
2021/11/08 09:47:40;;;;;;;29.02;7.60;;;10.40;93.80;;;;;;5053706;28;20029;-81
2021/11/08 09:50:12;;;;;;;35.15;7.63;;;10.40;93.60;;;;;;5053483;28;20053;-80
2021/11/08 09:52:42;;;;;;;33.10;6.55;;;10.50;93.50;;;;;;5051942;28;20024;-80
2021/11/08 09:55:10;;;;;;;33.30;6.60;;;10.50;93.30;;;;;;5053329;28;20489;-80
2021/11/08 09:57:37;;;;;;;31.92;6.47;;;10.50;93.30;;;;;;5051566;28;20025;-78
2021/11/08 10:00:21;;;;;;;29.83;6.88;;;10.60;93.30;;;;;;5051859;28;20817;-78
2021/11/08 10:03:02;;;;;;;32.22;7.47;;;10.60;93.30;;;;;;5053186;28;20036;-78
2021/11/08 10:05:33;;;;;;;30.85;6.50;;;10.60;93.30;;;;;;5052802;28;20108;-78
2021/11/08 10:07:59;;;;;;;35.85;7.03;;;10.60;93.30;;;;;;5053053;28;20024;-78
2021/11/08 10:10:29;;;;;;;28.13;7.65;;;10.60;93.30;;;;;;5052712;28;20025;-78
2021/11/08 10:13:15;;;;;;;30.00;7.18;;;10.70;93.30;;;;;;5052415;28;20490;-78
2021/11/08 10:15:50;;;;;;;33.60;6.70;;;10.70;93.20;;;;;;5053372;28;20029;-78
2021/11/08 10:18:18;;;;;;;34.38;8.00;;;10.70;93.00;;;;;;5053053;28;20394;-78
2021/11/08 10:20:48;;;;;;;33.50;6.85;;;10.80;93.00;;;;;;5053091;28;20021;-78
2021/11/08 10:23:18;;;;;;;30.83;6.82;;;10.80;92.90;;;;;;5052920;28;20025;-78
2021/11/08 10:25:45;;;;;;;31.10;6.53;;;10.80;93.00;;;;;;5052565;28;20473;-77
2021/11/08 10:28:17;;;;;;;24.33;6.40;;;10.80;93.00;;;;;;5051319;28;20041;-78
2021/11/08 10:30:46;;;;;;;33.60;7.57;;;10.90;93.00;;;;;;5052883;28;20049;-78
2021/11/08 10:33:22;;;;;;;23.60;5.90;;;10.90;93.00;;;;;;5053049;28;20369;-78
2021/11/08 10:35:53;;;;;;;28.08;6.93;;;10.90;93.00;;;;;;5052221;28;20267;-74
2021/11/08 10:38:25;;;;;;;28.08;6.32;;;10.90;92.90;;;;;;5052304;28;20111;-78
2021/11/08 10:40:56;;;;;;;31.08;6.63;;;10.90;92.80;;;;;;5051547;28;20032;-79
2021/11/08 10:43:54;;;;;;;28.35;6.55;;;10.90;92.70;;;;;;5052731;28;20048;-78
2021/11/08 10:46:29;;;;;;;28.02;6.45;;;10.90;92.90;;;;;;5052496;28;20501;-78
2021/11/08 10:49:00;;;;;;;31.35;6.85;;;10.90;92.90;;;;;;5052897;28;20473;-78
2021/11/08 10:51:28;;;;;;;32.97;6.65;;;10.90;92.90;;;;;;5053133;28;20031;-78
2021/11/08 10:54:00;;;;;;;28.95;6.00;;;10.90;92.90;;;;;;5052966;28;20017;-78
2021/11/08 10:56:36;;;;;;;28.65;6.53;;;11.00;92.90;;;;;;5051638;28;20040;-78
2021/11/08 10:59:07;;;;;;;28.25;6.30;;;10.90;92.80;;;;;;5051286;28;20027;-78
2021/11/08 11:01:36;;;;;;;35.10;7.05;;;10.90;92.70;;;;;;5053014;28;20025;-78
2021/11/08 11:04:05;;;;;;;28.67;7.07;;;10.90;92.60;;;;;;5050413;28;20130;-75
2021/11/08 11:06:45;;;;;;;;;;;11.00;92.70;;;;;;5051811;28;20031;-75
2021/11/08 11:09:17;;;;;;;26.63;6.57;;;11.00;92.80;;;;;;5050966;28;19963;-74
2021/11/08 11:11:45;;;;;;;40.90;6.78;;;11.00;92.80;;;;;;5049988;28;20396;-75
2021/11/08 11:14:10;;;;;;;29.13;6.85;;;11.10;92.80;;;;;;5051362;28;20103;-75
2021/11/08 11:16:40;;;;;;;26.65;7.25;;;11.10;92.80;;;;;;5051059;28;20057;-74
2021/11/08 11:19:07;;;;;;;;;;;11.20;92.80;;;;;;5055277;28;20489;-75
2021/11/08 11:21:34;;;;;;;28.00;6.22;;;11.20;92.70;;;;;;5055141;28;19913;-75
2021/11/08 11:24:02;;;;;;;32.90;7.15;;;11.20;92.80;;;;;;5055316;28;20116;-74
2021/11/08 11:26:31;;;;;;;28.40;6.30;;;11.40;92.70;;;;;;5055257;28;20033;-75
2021/11/08 11:28:57;;;;;;;29.40;6.57;;;11.40;92.50;;;;;;5053202;28;20060;-75
2021/11/08 11:31:26;;;;;;;36.28;7.45;;;11.40;92.40;;;;;;5054483;28;20287;-75
2021/11/08 11:33:54;;;;;;;26.25;6.60;;;11.50;92.30;;;;;;5052398;28;20037;-75
2021/11/08 11:36:22;;;;;;;31.70;6.55;;;11.60;92.20;;;;;;5046960;28;20465;-75
2021/11/08 11:39:02;;;;;;;29.30;6.70;;;11.60;92.00;;;;;;5034731;28;20482;-74
2021/11/08 11:41:35;;;;;;;27.08;6.28;;;11.70;91.90;;;;;;5050223;28;20397;-75
2021/11/08 11:44:15;;;;;;;41.95;6.88;;;11.80;91.80;;;;;;5052566;28;20115;-75
2021/11/08 11:46:44;;;;;;;31.67;6.00;;;11.90;91.70;;;;;;5053958;28;20033;-74
2021/11/08 11:49:11;;;;;;;27.38;6.00;;;12.00;91.50;;;;;;5054405;28;20036;-75
2021/11/08 11:51:43;;;;;;;31.10;5.80;;;12.00;91.40;;;;;;5054625;28;20032;-74
2021/11/08 11:54:11;;;;;;;25.48;6.07;;;12.00;91.30;;;;;;5055004;28;20036;-77
2021/11/08 11:56:39;;;;;;;36.40;6.10;;;12.00;91.20;;;;;;5064514;28;20060;-77
2021/11/08 11:59:06;;;;;;;27.75;5.95;;;12.00;91.10;;;;;;5067187;28;20025;-76
2021/11/08 12:01:34;;;;;;;27.95;5.70;;;12.00;91.10;;;;;;5064499;28;20104;-77
2021/11/08 12:04:00;;;;;;;32.00;6.20;;;12.00;91.10;;;;;;5064408;28;20058;-76
2021/11/08 12:06:29;;;;;;;26.05;6.03;;;12.00;91.20;;;;;;5049904;28;20481;-76
2021/11/08 12:08:56;;;;;;;29.83;5.38;;;12.00;91.10;;;;;;5064318;28;20032;-77
2021/11/08 12:11:32;;;;;;;25.38;5.50;;;12.00;91.00;;;;;;5047912;28;20035;-77
2021/11/08 12:14:01;;;;;;;32.53;5.50;;;11.90;90.80;;;;;;5061818;28;20078;-77
2021/11/08 12:16:28;;;;;;;25.50;5.05;;;11.90;90.70;;;;;;5064058;28;20028;-76
2021/11/08 12:18:57;;;;;;;26.40;4.88;;;11.90;90.70;;;;;;5064625;28;20778;-76
2021/11/08 12:21:35;;;;;;;23.40;4.80;;;11.90;90.60;;;;;;5062371;28;20420;-76
2021/11/08 12:24:15;;;;;;;20.88;4.28;;;11.90;90.70;;;;;;5063620;28;20050;-77
2021/11/08 12:26:41;;;;;;;26.27;5.07;;;11.90;90.70;;;;;;5063921;28;20033;-76
2021/11/08 12:29:19;;;;;;;24.92;4.60;;;12.00;90.60;;;;;;5044268;28;20063;-76
2021/11/08 12:31:46;;;;;;;28.00;4.72;;;12.00;90.60;;;;;;5067811;28;20436;-76
2021/11/08 12:34:20;;;;;;;25.27;5.20;;;12.00;90.60;;;;;;5067212;28;20071;-76
2021/11/08 12:37:01;;;;;;;26.48;4.60;;;12.00;90.50;;;;;;5064118;28;21285;-76
2021/11/08 12:39:28;;;;;;;33.00;4.97;;;12.00;90.60;;;;;;5066104;28;20031;-76
2021/11/08 12:42:00;;;;;;;28.08;5.13;;;12.00;90.50;;;;;;5066960;28;20016;-76
2021/11/08 12:44:42;;;;;;;23.33;4.57;;;12.00;90.30;;;;;;5062263;28;20489;-76
2021/11/08 12:47:10;;;;;;;20.48;4.40;;;12.00;90.10;;;;;;5060126;28;20050;-77
2021/11/08 12:49:49;;;;;;;31.35;5.35;;;12.00;90.10;;;;;;5067105;28;20103;-77
2021/11/08 12:52:17;;;;;;;;;;;12.00;90.00;;;;;;5064770;28;20020;-77
2021/11/08 12:54:55;;;;;;;31.92;5.20;;;12.00;89.50;;;;;;5063419;28;19904;-77
2021/11/08 12:57:24;;;;;;;26.50;4.40;;;12.00;89.90;;;;;;5065782;28;20484;-77
2021/11/08 12:59:56;;;;;;;19.13;4.55;;;12.00;90.10;;;;;;5068625;28;20021;-77
2021/11/08 13:02:28;;;;;;;22.77;4.53;;;12.00;90.10;;;;;;5065292;28;20033;-76
2021/11/08 13:05:04;;;;;;;25.52;5.35;;;12.00;89.90;;;;;;5058468;28;20382;-76
2021/11/08 13:07:41;;;;;;;30.20;4.53;;;12.10;90.10;;;;;;5049442;28;20079;-76
2021/11/08 13:10:22;;;;;;;22.02;3.85;;;12.10;90.10;;;;;;5053001;28;20024;-77
2021/11/08 13:12:48;;;;;;;20.65;4.10;;;12.10;90.10;;;;;;5052548;28;20037;-77
2021/11/08 13:15:19;;;;;;;20.20;3.65;;;12.10;90.20;;;;;;5052194;28;20070;-77
2021/11/08 13:17:54;;;;;;;21.63;3.90;;;12.10;90.20;;;;;;5049518;28;20078;-77
2021/11/08 13:20:23;;;;;;;14.00;2.97;;;12.10;89.90;;;;;;5048084;28;20017;-78
2021/11/08 13:22:52;;;;;;;27.60;4.20;;;12.10;89.90;;;;;;5049728;28;20033;-76
2021/11/08 13:25:26;;;;;;;20.45;3.13;;;12.00;89.80;;;;;;5051651;28;20116;-76
2021/11/08 13:27:55;;;;;;;24.00;4.75;;;12.00;88.90;;;;;;5049671;28;20085;-75
2021/11/08 13:30:25;;;;;;;25.25;3.85;;;12.00;88.40;;;;;;5049795;28;20123;-76
2021/11/08 13:32:52;;;;;;;17.92;3.45;;;12.00;88.80;;;;;;5048474;28;20028;-76
2021/11/08 13:35:26;;;;;;;19.58;3.30;;;12.00;89.10;;;;;;5049931;28;20025;-76
2021/11/08 13:38:12;;;;;;;17.52;3.53;;;12.00;89.10;;;;;;5045277;28;20052;-76
2021/11/08 13:41:03;;;;;;;19.13;3.47;;;12.00;89.40;;;;;;5036857;28;20480;-75
2021/11/08 13:43:50;;;;;;;13.02;3.13;;;12.00;89.60;;;;;;5041246;28;20108;-76
2021/11/08 13:46:24;;;;;;;24.80;3.85;;;12.00;89.60;;;;;;5036499;28;20032;-76
2021/11/08 13:48:55;;;;;;;20.63;3.40;;;12.00;89.30;;;;;;5046137;28;20052;-76
2021/11/08 13:51:40;;;;;;;17.02;3.22;;;12.00;89.00;;;;;;5049339;28;20032;-75
2021/11/08 13:54:18;;;;;;;18.38;3.05;;;12.00;88.80;;;;;;5052061;28;20170;-75
2021/11/08 13:56:49;;;;;;;22.30;3.60;;;12.00;89.10;;;;;;5050831;28;20021;-76
2021/11/08 13:59:27;;;;;;;20.13;3.90;;;12.00;89.00;;;;;;5050631;28;20158;-76
2021/11/08 14:01:59;;;;;;;16.83;3.70;;;12.00;88.60;;;;;;5050151;28;20033;-76
2021/11/08 14:04:32;;;;;;;22.27;3.42;;;12.00;89.00;;;;;;5051898;28;20017;-76
2021/11/08 14:06:58;;;;;;;21.73;4.13;;;12.00;88.80;;;;;;5048804;28;20525;-76
2021/11/08 14:09:26;;;;;;;21.98;3.60;;;11.90;89.10;;;;;;5052943;28;20052;-75
2021/11/08 14:11:54;;;;;;;15.98;2.92;;;12.00;89.30;;;;;;5051492;28;20079;-76
2021/11/08 14:14:24;;;;;;;20.42;3.70;;;12.00;89.60;;;;;;5051367;28;20028;-76
2021/11/08 14:16:51;;;;;;;23.33;3.83;;;11.90;89.40;;;;;;5051039;28;20028;-76
2021/11/08 14:19:19;;;;;;;20.63;3.60;;;11.90;89.70;;;;;;5042789;28;20025;-76
2021/11/08 14:21:48;;;;;;;19.98;4.15;;;11.90;89.90;;;;;;5051978;28;20017;-76
2021/11/08 14:24:16;;;;;;;23.42;4.10;;;11.90;89.70;;;;;;5051571;28;20029;-76
2021/11/08 14:26:45;;;;;;;14.93;3.55;;;11.90;89.60;;;;;;5049468;28;20638;-76
2021/11/08 14:29:14;;;;;;;20.95;3.47;;;11.90;89.90;;;;;;5046024;28;20033;-76
2021/11/08 14:31:42;;;;;;;17.55;3.88;;;11.90;90.10;;;;;;5050305;28;20124;-76
2021/11/08 14:34:11;;;;;;;20.88;4.20;;;11.90;90.20;;;;;;5047636;28;20516;-77
2021/11/08 14:36:44;;;;;;;19.67;3.42;;;11.90;90.30;;;;;;5046459;28;20031;-77
2021/11/08 14:39:13;;;;;;;18.42;3.65;;;11.90;90.30;;;;;;5047780;28;20033;-76